Create Custom Reports and Graphics: Custom Report

Scotts Valley

Current Conditions

4/19/21 6:45 PM (-07:00)
Updated Every 15 Minutes
Temp 69.5 °F   7.2
RH 31 %   11
Dew Pt 37.5 °F   4.9
Wet Bulb 52.2 °F   0.5
Wind Dir W | 266 °
Wind Spd 3.8 mph   2.2
Wind Gust 11.4 mph   4.4
BatVolt 13.3 V   0.1
Monthly Rain 0.00 In
Seasonal Rainfall 11.64 In

Today & Yesterday

Midnight to Midnight

4/19/21 6:45 PM (-07:00)
Updated Every 15 Minutes
Daily Max Temp 81.1 °F   3.5
Time of Max Temp 1352
Daily Min Temp 33.9 °F   3.6
Time of Min Temp 0633
Daily Max Wind 20.1 mph   4.3
Time of Max Wind 1611
Max Wind Dir W | 261 °
Daily Rain 0.00 In
Daily Leaf Wet Hrs 0.9 hrs   1.3
Yesterday's Max Temp 84.6 °F
Yesterday’s Min Temp 30.3 °F
Yesterday's Max Wind 15.8 mph
Yesterday's Rainfall 0.00 In
Leaf Wet Hrs Yest 2.2 Hours

Last 7 Days

Scotts Valley

Hourly Data | America/Los_Angeles
as of 4/19/21 6:45 PM PDT
Date & Time Temp (°F) RH (%) Dew Pt (°F) Wind Dir (°) Wind Spd (mph) Wind Gust (mph) Leaf Wet (mins) BatVolt (V) Latest Rain (In) Daily Rain (In) Daily Min Temp (°F) Daily Max Temp (°F) Daily Max Wind (mph) Daily Leaf Wet Hrs (hrs)
4/19/21 - 1800 73.8 29 39.7 WNW | 282 3.6 12.1 0.0 13.2 0.00 0.00 33.9 81.1 20.1 0.9
4/19/21 - 1700 75.9 29 41.0 W | 269 5.5 20.1 0.0 13.2 0.00 0.00 33.9 81.1 20.1 0.9
4/19/21 - 1600 78.8 26 41.0 W | 260 7.1 16.1 0.0 13.2 0.00 0.00 33.9 81.1 16.1 0.9
4/19/21 - 1500 79.8 24 39.8 W | 263 6.3 15.1 0.0 13.2 0.00 0.00 33.9 81.1 15.1 0.9
4/19/21 - 1400 80.1 22 37.9 W | 276 4.3 11.6 0.0 13.2 0.00 0.00 33.9 81.1 11.6 0.9
4/19/21 - 1300 77.5 26 39.4 W | 265 4.1 10.5 0.0 13.2 0.00 0.00 33.9 79.7 11.1 0.9
4/19/21 - 1200 75.6 30 42.0 NNE | 33 2.4 11.1 0.0 13.2 0.00 0.00 33.9 77.2 11.1 0.9
4/19/21 - 1100 71.1 34 41.2 NE | 44 1.4 6.1 0.0 13.2 0.00 0.00 33.9 74.0 6.1 0.9
4/19/21 - 1000 65.6 35 37.3 NE | 51 1.5 3.7 0.0 13.4 0.00 0.00 33.9 68.4 3.7 0.9
4/19/21 - 0900 54.9 57 39.6 ESE | 107 0.5 2.2 0.0 13.5 0.00 0.00 33.9 62.3 2.8 0.9
4/19/21 - 0800 40.0 89 36.7 ENE | 71 0.2 2.3 12.9 13.2 0.00 0.00 33.9 47.1 2.8 0.9
4/19/21 - 0700 34.2 95 32.9 WSW | 242 0.1 1.6 41.3 12.7 0.00 0.00 33.9 42.4 2.8 0.7
4/19/21 - 0600 35.5 92 33.5 SW | 232 0.2 1.9 0.0 12.7 0.00 0.00 34.7 42.4 2.8 0.0
4/19/21 - 0500 36.8 90 34.0 WNW | 283 0.1 1.5 0.0 12.7 0.00 0.00 36.0 42.4 2.8 0.0
4/19/21 - 0400 38.2 87 34.6 W | 262 0.4 2.1 0.0 12.7 0.00 0.00 37.6 42.4 2.8 0.0
4/19/21 - 0300 39.8 82 34.8 ENE | 60 0.3 2.8 0.0 12.7 0.00 0.00 38.9 42.4 2.8 0.0
4/19/21 - 0200 41.4 78 35.1 E | 83 0.2 1.6 0.0 12.8 0.00 0.00 40.6 42.4 1.6 0.0
4/19/21 - 0100 43.1 73 35.2 NE | 53 0.4 2.5 0.0 12.8 0.00 0.00 30.3 84.6 15.8 2.2
4/19/21 - 0000 45.6 67 35.4 WSW | 254 0.7 3.4 0.0 12.8 0.00 0.00 30.3 84.6 15.8 2.2
4/18/21 - 2300 48.8 59 35.0 E | 95 0.4 2.7 0.0 12.8 0.00 0.00 30.3 84.6 15.8 2.2
4/18/21 - 2200 54.5 46 34.0 S | 169 0.6 3.1 0.0 12.9 0.00 0.00 30.3 84.6 15.8 2.2
4/18/21 - 2100 62.7 31 31.4 S | 171 0.7 3.3 0.0 13.0 0.00 0.00 30.3 84.6 15.8 2.2
4/18/21 - 2000 71.2 21 29.8 NW | 319 1.5 8.7 0.0 13.1 0.00 0.00 30.3 84.6 15.8 2.2
4/18/21 - 1900 76.9 19 32.1 WNW | 292 2.3 11.4 0.0 13.2 0.00 0.00 30.3 84.6 15.8 2.2
4/18/21 - 1800 79.5 18 31.8 WNW | 288 3.5 15.6 0.0 13.2 0.00 0.00 30.3 84.6 15.8 2.2
4/18/21 - 1700 81.9 17 33.3 W | 274 4.8 15.8 0.0 13.1 0.00 0.00 30.3 84.6 15.8 2.2
4/18/21 - 1600 83.7 17 34.5 W | 270 4.5 13.8 0.0 13.1 0.00 0.00 30.3 84.6 13.8 2.2
4/18/21 - 1500 83.5 16 32.9 W | 275 4.0 13.7 0.0 13.1 0.00 0.00 30.3 84.5 13.7 2.2
4/18/21 - 1400 82.7 15 30.3 WNW | 286 3.5 10.8 0.0 13.1 0.00 0.00 30.3 83.7 10.8 2.2
4/18/21 - 1300 81.0 15 29.2 NNE | 26 3.0 10.6 0.0 13.1 0.00 0.00 30.3 82.3 10.6 2.2
4/18/21 - 1200 76.3 29 41.2 ESE | 105 2.1 5.7 0.0 13.2 0.00 0.00 30.3 79.2 5.7 2.2
4/18/21 - 1100 70.6 34 40.7 ESE | 104 1.8 4.9 0.0 13.3 0.00 0.00 30.3 74.2 4.9 2.2
4/18/21 - 1000 62.6 37 36.0 N | 10 0.8 3.7 0.0 13.4 0.00 0.00 30.3 67.3 3.8 2.2
4/18/21 - 0900 50.2 61 37.0 NNE | 24 0.6 2.5 0.0 13.6 0.00 0.00 30.3 57.2 3.8 2.2
4/18/21 - 0800 36.4 89 33.3 NE | 41 0.3 1.8 31.8 13.2 0.00 0.00 30.3 43.8 3.8 2.2
4/18/21 - 0700 30.6 95 29.5 NW | 316 0.3 1.8 60.0 12.7 0.00 0.00 30.3 42.0 3.8 1.7
4/18/21 - 0600 31.7 93 30.0 SSE | 155 0.6 3.8 39.6 12.7 0.00 0.00 31.0 42.0 3.8 0.7
4/18/21 - 0500 32.6 93 30.8 S | 175 0.2 1.3 0.0 12.7 0.00 0.00 32.2 42.0 2.6 0.0
4/18/21 - 0400 34.3 89 31.5 SW | 236 0.5 2.6 0.0 12.7 0.00 0.00 33.3 42.0 2.6 0.0
4/18/21 - 0300 36.1 85 32.1 SSE | 164 0.5 2.3 0.0 12.7 0.00 0.00 34.9 42.0 2.4 0.0
4/18/21 - 0200 39.3 77 32.8 S | 184 0.4 2.4 0.0 12.8 0.00 0.00 37.2 42.0 2.4 0.0
4/18/21 - 0100 42.0 72 33.8 SSW | 202 1.8 8.3 0.0 12.8 0.00 0.00 32.0 81.0 14.1 2.9
4/18/21 - 0000 42.5 72 34.3 SSW | 195 1.0 3.6 0.0 12.8 0.00 0.00 32.0 81.0 14.1 2.9
4/17/21 - 2300 46.7 62 34.2 NE | 38 0.6 3.0 0.0 12.9 0.00 0.00 32.0 81.0 14.1 2.9
4/17/21 - 2200 54.8 46 34.0 ENE | 70 0.9 3.7 0.0 12.9 0.00 0.00 32.0 81.0 14.1 2.9
4/17/21 - 2100 61.8 34 32.8 W | 260 1.4 8.0 0.0 13.0 0.00 0.00 32.0 81.0 14.1 2.9
4/17/21 - 2000 68.3 28 33.6 W | 275 1.4 6.7 0.0 13.1 0.00 0.00 32.0 81.0 14.1 2.9
4/17/21 - 1900 76.1 20 31.3 WSW | 238 2.9 9.9 0.0 13.2 0.00 0.00 32.0 81.0 14.1 2.9
4/17/21 - 1800 79.7 14 25.5 SSE | 160 3.1 10.1 0.0 13.2 0.00 0.00 32.0 81.0 14.1 2.9
4/17/21 - 1700 80.4 14 26.6 SE | 144 3.8 10.1 0.0 13.1 0.00 0.00 32.0 81.0 14.1 2.9
4/17/21 - 1600 80.3 14 27.5 SSE | 152 4.4 11.6 0.0 13.1 0.00 0.00 32.0 81.0 14.1 2.9
4/17/21 - 1500 78.8 16 28.2 SE | 134 4.9 14.1 0.0 13.2 0.00 0.00 32.0 79.9 14.1 2.9
4/17/21 - 1400 77.3 17 28.8 E | 98 4.5 11.1 0.0 13.2 0.00 0.00 32.0 78.5 12.7 2.9
4/17/21 - 1300 76.2 19 30.6 ESE | 109 4.4 12.7 0.0 13.2 0.00 0.00 32.0 77.0 12.7 2.9
4/17/21 - 1200 74.4 20 30.6 SE | 130 2.4 8.7 0.0 13.2 0.00 0.00 32.0 75.9 8.7 2.9
4/17/21 - 1100 72.2 20 29.5 SE | 144 2.7 8.3 0.0 13.3 0.00 0.00 32.0 73.9 8.3 2.9
4/17/21 - 1000 64.2 40 38.0 ESE | 121 1.5 8.1 0.0 13.4 0.00 0.00 32.0 70.5 8.1 2.9
4/17/21 - 0900 51.1 67 40.2 NE | 46 0.6 2.3 0.0 13.6 0.00 0.00 32.0 57.7 3.2 2.9
4/17/21 - 0800 37.6 93 35.8 ENE | 63 0.4 3.1 41.6 13.2 0.00 0.00 32.0 44.0 3.2 2.9
4/17/21 - 0700 32.5 96 31.5 NE | 41 0.2 2.1 60.0 12.7 0.00 0.00 32.0 39.5 3.2 2.2
4/17/21 - 0600 33.4 95 32.2 ESE | 123 0.2 2.0 60.0 12.7 0.00 0.00 32.7 39.5 3.2 1.2
4/17/21 - 0500 34.4 94 32.8 ESE | 102 0.2 2.0 11.9 12.7 0.00 0.00 34.2 39.5 3.2 0.2
4/17/21 - 0400 35.5 91 33.2 SW | 224 0.4 2.4 0.0 12.7 0.00 0.00 34.9 39.5 3.2 0.0
4/17/21 - 0300 37.1 89 34.2 ENE | 65 0.7 3.2 0.0 12.8 0.00 0.00 36.2 39.5 3.2 0.0
4/17/21 - 0200 38.5 85 34.4 NNE | 20 0.3 1.8 0.0 12.8 0.00 0.00 37.3 39.5 1.8 0.0
4/17/21 - 0100 40.4 81 35.1 WNW | 299 0.3 1.9 0.0 12.8 0.00 0.00 30.4 79.2 15.4 6.3
4/17/21 - 0000 43.1 75 35.7 W | 270 0.6 2.8 0.0 12.8 0.00 0.00 30.4 79.2 15.4 6.3
4/16/21 - 2300 46.0 69 36.3 NNE | 23 0.6 2.4 0.0 12.9 0.00 0.00 30.4 79.2 15.4 6.3
4/16/21 - 2200 50.9 56 35.7 NNE | 28 0.9 3.9 0.0 13.0 0.00 0.00 30.4 79.2 15.4 6.3
4/16/21 - 2100 58.3 42 35.0 SW | 236 0.8 3.4 0.0 13.0 0.00 0.00 30.4 79.2 15.4 6.3
4/16/21 - 2000 65.0 33 35.2 W | 266 2.1 10.2 0.0 13.2 0.00 0.00 30.4 79.2 15.4 6.3
4/16/21 - 1900 70.8 25 33.7 W | 274 3.0 12.1 0.0 13.3 0.00 0.00 30.4 79.2 15.4 6.3
4/16/21 - 1800 73.5 25 35.4 W | 274 4.3 15.4 0.0 13.2 0.00 0.00 30.4 79.2 15.4 6.3
4/16/21 - 1700 76.0 26 38.7 W | 268 4.6 15.2 0.0 13.2 0.00 0.00 30.4 79.2 15.2 6.3
4/16/21 - 1600 77.1 23 36.1 W | 269 2.4 11.6 0.0 13.2 0.00 0.00 30.4 79.2 12.0 6.3
4/16/21 - 1500 77.4 21 34.5 S | 181 3.1 10.7 0.0 13.2 0.00 0.00 30.4 78.7 12.0 6.3
4/16/21 - 1400 75.6 24 35.8 SSW | 199 3.7 12.0 0.0 13.2 0.00 0.00 30.4 77.5 12.0 6.3
4/16/21 - 1300 73.3 26 35.8 SSE | 150 2.3 9.0 0.0 13.2 0.00 0.00 30.4 75.1 9.0 6.3
4/16/21 - 1200 68.6 36 40.6 SE | 132 2.0 6.1 0.0 13.3 0.00 0.00 30.4 71.6 6.4 6.3
4/16/21 - 1100 64.5 42 41.1 ENE | 67 2.0 6.4 0.0 13.4 0.00 0.00 30.4 67.0 6.4 6.3
4/16/21 - 1000 57.8 51 39.3 NE | 51 1.3 4.4 0.0 13.5 0.00 0.00 30.4 61.3 4.4 6.3
4/16/21 - 0900 47.5 71 38.2 W | 279 0.9 3.3 0.0 13.6 0.00 0.00 30.4 53.2 3.3 6.3
4/16/21 - 0800 35.2 96 34.1 NNE | 24 0.3 1.6 56.9 13.2 0.00 0.00 30.4 41.6 2.1 6.3
4/16/21 - 0700 30.7 97 30.0 NE | 56 0.3 1.6 60.0 12.7 0.00 0.00 30.4 37.6 2.1 5.4
4/16/21 - 0600 31.4 97 30.6 ENE | 57 0.1 1.1 60.0 12.7 0.00 0.00 30.8 37.6 2.1 4.4
4/16/21 - 0500 32.6 96 31.7 ENE | 58 0.3 1.5 60.0 12.7 0.00 0.00 31.8 37.6 2.1 3.4
4/16/21 - 0400 33.4 95 32.3 S | 184 0.2 2.1 60.0 12.8 0.00 0.00 32.8 37.6 2.1 2.4
4/16/21 - 0300 34.5 95 33.1 ESE | 103 0.2 1.4 60.0 12.8 0.00 0.00 34.1 37.6 1.4 1.4
4/16/21 - 0200 36.1 93 34.2 E | 97 0.1 1.0 22.6 12.8 0.00 0.00 35.3 37.6 1.0 0.4
4/16/21 - 0100 38.7 89 35.9 SSE | 160 0.4 2.8 0.0 12.8 0.00 0.00 28.4 72.0 12.3 4.0
4/16/21 - 0000 40.3 87 36.9 SSW | 212 0.6 3.2 0.0 12.9 0.00 0.00 28.4 72.0 12.3 4.0
4/15/21 - 2300 42.8 83 38.1 SW | 229 0.3 1.3 0.0 12.9 0.00 0.00 28.4 72.0 12.3 4.0
4/15/21 - 2200 46.6 74 38.9 SSW | 197 0.1 1.4 0.0 13.0 0.00 0.00 28.4 72.0 12.3 4.0
4/15/21 - 2100 52.6 61 39.5 WSW | 245 0.5 1.9 0.0 13.0 0.00 0.00 28.4 72.0 12.3 4.0
4/15/21 - 2000 60.7 41 36.6 WSW | 250 2.8 7.8 0.0 13.2 0.00 0.00 28.4 72.0 12.3 4.0
4/15/21 - 1900 65.7 29 32.8 SW | 236 4.9 11.4 0.0 13.4 0.00 0.00 28.4 72.0 12.3 4.0
4/15/21 - 1800 68.5 23 29.6 SW | 225 4.6 10.8 0.0 13.3 0.00 0.00 28.4 72.0 12.3 4.0
4/15/21 - 1700 69.5 23 30.5 SW | 228 5.2 12.2 0.0 13.2 0.00 0.00 28.4 72.0 12.3 4.0
4/15/21 - 1600 70.2 25 32.4 SW | 226 4.9 12.1 0.0 13.2 0.00 0.00 28.4 72.0 12.3 4.0
4/15/21 - 1500 70.2 26 34.0 S | 190 4.0 12.3 0.0 13.2 0.00 0.00 28.4 72.0 12.3 4.0
4/15/21 - 1400 67.7 25 30.5 ENE | 63 4.1 11.2 0.0 13.3 0.00 0.00 28.4 69.8 11.2 4.0
4/15/21 - 1300 67.0 26 31.4 ESE | 120 3.3 9.3 0.0 13.3 0.00 0.00 28.4 68.3 10.6 4.0
4/15/21 - 1200 63.7 37 37.0 ESE | 120 3.5 10.6 0.0 13.3 0.00 0.00 28.4 65.7 10.6 4.0
4/15/21 - 1100 59.8 40 35.5 ESE | 121 2.9 8.8 0.0 13.4 0.00 0.00 28.4 62.5 8.8 4.0
4/15/21 - 1000 54.3 45 33.6 NNE | 25 1.6 5.6 0.0 13.5 0.00 0.00 28.4 57.0 5.6 4.0
4/15/21 - 0900 44.8 64 33.1 NE | 51 0.8 2.8 0.0 13.7 0.00 0.00 28.4 50.7 2.8 4.0
4/15/21 - 0800 32.1 96 30.9 SW | 222 0.2 2.0 48.0 13.2 0.00 0.00 28.4 38.1 2.0 4.0
4/15/21 - 0700 28.6 96 27.7 SE | 144 0.1 1.0 60.0 12.7 0.00 0.00 28.4 34.4 2.0 3.2
4/15/21 - 0600 29.2 95 28.0 S | 180 0.2 1.9 60.0 12.7 0.00 0.00 28.7 34.4 2.0 2.2
4/15/21 - 0500 29.7 95 28.5 ESE | 123 0.1 0.9 60.0 12.7 0.00 0.00 29.4 34.4 2.0 1.2
4/15/21 - 0400 30.4 93 28.5 ESE | 103 0.0 1.0 9.9 12.8 0.00 0.00 29.7 34.4 2.0 0.2
4/15/21 - 0300 31.8 90 29.3 ESE | 102 0.2 1.1 0.0 12.8 0.00 0.00 31.0 34.4 2.0 0.0
4/15/21 - 0200 33.3 86 29.7 N | 6 0.4 2.0 0.0 12.8 0.00 0.00 32.0 34.4 2.0 0.0
4/15/21 - 0100 35.3 82 30.4 SE | 139 0.8 2.8 0.0 12.8 0.00 0.00 28.8 70.9 18.1 1.1
4/15/21 - 0000 37.2 78 31.0 SSE | 149 0.3 2.0 0.0 12.9 0.00 0.00 28.8 70.9 18.1 1.1
4/14/21 - 2300 40.1 71 31.4 SE | 137 0.7 2.5 0.0 12.9 0.00 0.00 28.8 70.9 18.1 1.1
4/14/21 - 2200 44.8 60 31.6 W | 277 0.7 2.8 0.0 13.0 0.00 0.00 28.8 70.9 18.1 1.1
4/14/21 - 2100 49.2 50 31.5 SSW | 193 1.0 3.0 0.0 13.1 0.00 0.00 28.8 70.9 18.1 1.1
4/14/21 - 2000 59.2 32 29.2 NW | 310 1.0 5.3 0.0 13.2 0.00 0.00 28.8 70.9 18.1 1.1
4/14/21 - 1900 64.0 29 30.9 NW | 307 2.4 9.8 0.0 13.4 0.00 0.00 28.8 70.9 18.1 1.1
4/14/21 - 1800 64.7 29 32.1 W | 274 4.9 15.2 0.0 13.4 0.00 0.00 28.8 70.9 18.1 1.1
4/14/21 - 1700 66.9 30 34.3 WNW | 286 4.2 18.1 0.0 13.3 0.00 0.00 28.8 70.9 18.1 1.1
4/14/21 - 1600 69.4 25 31.6 WSW | 242 4.0 13.7 0.0 13.2 0.00 0.00 28.8 70.9 13.7 1.1
4/14/21 - 1500 68.5 23 29.4 W | 259 3.4 11.4 0.0 13.3 0.00 0.00 28.8 69.9 11.4 1.1
4/14/21 - 1400 66.8 24 28.9 S | 171 3.6 10.2 0.0 13.3 0.00 0.00 28.8 68.2 10.2 1.1
4/14/21 - 1300 64.9 26 28.8 WSW | 252 2.8 8.4 0.0 13.3 0.00 0.00 28.8 66.8 9.2 1.1
4/14/21 - 1200 62.6 26 27.3 SW | 223 3.7 9.2 0.0 13.4 0.00 0.00 28.8 63.9 9.2 1.1
4/14/21 - 1100 60.5 28 27.1 ENE | 75 2.3 6.9 0.0 13.4 0.00 0.00 28.8 62.2 6.9 1.1
4/14/21 - 1000 56.9 37 30.8 ESE | 122 1.8 6.5 0.0 13.5 0.00 0.00 28.8 59.1 6.5 1.1
4/14/21 - 0900 47.2 58 32.8 ENE | 57 0.4 2.3 0.0 13.6 0.00 0.00 28.8 53.8 4.6 1.1
4/14/21 - 0800 33.4 88 30.2 ENE | 61 0.4 2.1 26.0 13.2 0.00 0.00 28.8 40.0 4.6 1.1
4/14/21 - 0700 29.3 93 27.6 E | 96 0.4 2.1 38.1 12.7 0.00 0.00 28.8 35.2 4.6 0.6
4/14/21 - 0600 29.8 92 27.7 SSW | 202 0.5 2.8 0.0 12.7 0.00 0.00 29.4 35.2 4.6 0.0
4/14/21 - 0500 30.8 90 28.3 NE | 52 0.6 4.6 0.0 12.7 0.00 0.00 30.3 35.2 4.6 0.0
4/14/21 - 0400 31.5 90 28.8 SSE | 152 0.5 2.3 0.0 12.8 0.00 0.00 30.5 35.2 3.3 0.0
4/14/21 - 0300 33.1 87 29.6 SSE | 158 0.4 2.2 0.0 12.8 0.00 0.00 31.8 35.2 3.3 0.0
4/14/21 - 0200 34.0 84 29.8 S | 189 0.4 3.3 0.0 12.8 0.00 0.00 33.3 35.2 3.3 0.0
4/14/21 - 0100 35.8 80 30.1 ESE | 123 0.4 3.2 0.0 12.8 0.00 0.00 30.7 72.4 20.4 2.0
4/14/21 - 0000 38.6 74 31.0 NW | 318 0.5 2.6 0.0 12.9 0.00 0.00 30.7 72.4 20.4 2.0
4/13/21 - 2300 42.4 62 30.1 S | 184 0.8 3.1 0.0 12.9 0.00 0.00 30.7 72.4 20.4 2.0
4/13/21 - 2200 47.7 51 30.3 WSW | 255 1.0 4.9 0.0 13.0 0.00 0.00 30.7 72.4 20.4 2.0
4/13/21 - 2100 52.1 42 29.6 WSW | 249 1.1 4.8 0.0 13.1 0.00 0.00 30.7 72.4 20.4 2.0
4/13/21 - 2000 57.9 33 28.8 W | 272 1.9 8.4 0.0 13.2 0.00 0.00 30.7 72.4 20.4 2.0
4/13/21 - 1900 63.5 28 29.5 W | 267 4.2 12.9 0.0 13.4 0.00 0.00 30.7 72.4 20.4 2.0
4/13/21 - 1800 66.6 27 31.8 W | 271 6.5 20.4 0.0 13.3 0.00 0.00 30.7 72.4 20.4 2.0
4/13/21 - 1700 70.8 25 32.8 W | 270 5.1 13.4 0.0 13.2 0.00 0.00 30.7 72.4 14.1 2.0
4/13/21 - 1600 71.5 24 32.5 W | 267 4.7 14.1 0.0 13.2 0.00 0.00 30.7 72.4 14.1 2.0
4/13/21 - 1500 70.9 26 34.1 NW | 304 3.8 13.0 0.0 13.2 0.00 0.00 30.7 72.0 14.0 2.0
4/13/21 - 1400 69.0 25 32.2 NNW | 340 3.3 10.0 0.0 13.3 0.00 0.00 30.7 70.5 14.0 2.0
4/13/21 - 1300 67.4 24 29.0 NNE | 15 5.0 14.0 0.0 13.3 0.00 0.00 30.7 68.3 14.0 2.0
4/13/21 - 1200 65.1 26 29.4 N | 352 3.7 11.2 0.0 13.3 0.00 0.00 30.7 67.1 11.4 2.0
4/13/21 - 1100 62.4 30 30.3 N | 356 4.2 10.6 0.0 13.4 0.00 0.00 30.7 63.6 11.4 2.0
4/13/21 - 1000 59.3 32 29.3 NNW | 347 3.4 11.4 0.0 13.4 0.00 0.00 30.7 60.9 11.4 2.0
4/13/21 - 0900 55.8 36 29.1 N | 4 4.2 10.6 0.0 13.5 0.00 0.00 30.7 57.4 10.6 2.0
4/13/21 - 0800 48.9 46 28.7 NNW | 330 2.3 10.3 0.0 13.1 0.00 0.00 30.7 53.4 10.3 2.0
4/13/21 - 0700 39.8 68 29.8 W | 268 1.5 5.4 24.0 12.7 0.00 0.00 30.7 43.8 5.4 2.0
4/13/21 - 0600 31.4 93 29.6 W | 259 0.8 4.3 60.0 12.7 0.00 0.00 30.7 38.7 4.3 1.6
4/13/21 - 0500 32.1 93 30.3 SSW | 212 0.5 2.6 38.7 12.7 0.00 0.00 31.7 38.7 2.6 0.6
4/13/21 - 0400 33.9 91 31.5 WNW | 298 0.4 2.2 0.0 12.7 0.00 0.00 32.8 38.7 2.6 0.0
4/13/21 - 0300 35.1 89 32.2 W | 268 0.2 2.4 0.0 12.8 0.00 0.00 34.2 38.7 2.6 0.0
4/13/21 - 0200 37.2 85 33.1 N | 349 0.3 2.6 0.0 12.8 0.00 0.00 36.1 38.7 2.6 0.0
4/13/21 - 0100 39.5 80 34.0 NE | 36 0.4 2.1 0.0 12.8 0.00 0.00 34.4 80.6 17.9 5.3
4/13/21 - 0000 41.1 74 33.6 ENE | 69 0.4 1.6 0.0 12.8 0.00 0.00 34.4 80.6 17.9 5.3
4/12/21 - 2300 45.6 64 34.0 WSW | 245 0.6 2.8 0.0 12.9 0.00 0.00 34.4 80.6 17.9 5.3
4/12/21 - 2200 51.0 53 34.1 SW | 230 0.9 5.7 0.0 12.9 0.00 0.00 34.4 80.6 17.9 5.3
4/12/21 - 2100 59.0 35 31.4 WNW | 291 1.0 7.0 0.0 13.0 0.00 0.00 34.4 80.6 17.9 5.3
4/12/21 - 2000 66.5 27 31.7 WSW | 258 2.1 10.7 0.0 13.1 0.00 0.00 34.4 80.6 17.9 5.3
4/12/21 - 1900 73.0 27 37.2 W | 261 4.9 13.4 0.0 13.3 0.00 0.00 34.4 80.6 17.9 5.3
Max 83.7 97 42.0 - 7.1 20.4 60.0 13.7 0.00 0.00 40.6 84.6 20.4 6.3
Avg 54.0 54 33.0 - 1.9 6.5 6.9 13.1 0.00 - - - - -
Min 28.6 14 25.5 - 0.0 0.9 0.0 12.7 0.00 0.00 28.4 34.4 1.0 0.0
Total - - - - - - - - 0.00 - - - - -

Last 30 Days

Scotts Valley

Daily Data | America/Los_Angeles
as of 4/19/21 6:45 PM PDT
Date Daily Max Temp (°F) Time of Max Temp Daily Min Temp (°F) Time of Min Temp Daily Rain (In) Monthly Rain (In) Seasonal Rainfall (In) Daily Max Wind (mph) Time of Max Wind Max Wind Dir (°) Wind Spd (mph) Dew Pt (°F) Max RH (%) Min RH (%) Daily Leaf Wet Hrs (hrs) Degree Hrs (hrs) Chilling <=45F (hrs) Chill Hrs 32-45F (hrs) Utah Chilling (Units) Chilling <=45F Seas (hrs) Chill Hrs 32-45 Seas (hrs) Utah Chilling Seas (Units) Chill Portions Hrs <= 32F (hrs) Hrs <= 28F (hrs) GDDs (DL) GDDs (Mx/Mn) Seas GDDs (DL) Seas GDDs (Smpl) Hrs 70-85F (hrs) Hrs > 95F (hrs) Powdery Mildew Stress (pts) Bee Hrs Today (Hrs) Bat Volt Min Day (V)
4/18/21 84.6 1508 30.3 0626 0.00 0.00 11.64 15.8 1627 WSW | 247 1.6 33.3 97 10 2.2 137.4 8.5 6.5 -4.5 - - - 93 2.0 0.0 13.3 7.5 148 54 9.29 0.00 50 10.7 12.5
4/17/21 81.0 1547 32.0 0642 0.00 0.00 11.64 14.1 1440 ESE | 123 1.9 32.2 98 11 2.9 113.8 9.2 9.2 -3.5 - - - 93 0.0 0.0 12.4 6.5 134 47 9.40 0.00 30 10.8 12.5
4/16/21 79.2 1514 30.4 0625 0.00 0.00 11.64 15.4 1748 WNW | 290 1.5 35.4 99 18 6.3 72.3 9.3 6.9 -2.5 - - - 93 2.4 0.0 10.0 4.8 122 40 6.90 0.00 10 10.4 12.5
4/15/21 72.0 1454 28.4 0628 0.00 0.00 11.64 12.3 1441 SW | 220 1.9 32.9 98 20 4.0 23.6 10.6 5.3 -2.5 - - - 93 5.4 0.0 7.1 0.2 112 36 1.26 0.00 20 9.9 12.6
4/14/21 70.9 1531 28.8 0622 0.00 0.00 11.64 18.1 1613 WNW | 298 1.7 30.0 96 20 1.1 11.6 10.9 6.4 -1.0 - - - 92 4.6 0.0 6.5 0.0 105 36 0.20 0.00 30 10.3 12.6
4/13/21 72.4 1540 30.7 0544 0.00 0.00 11.64 20.4 1705 W | 262 2.5 30.6 96 19 2.0 26.5 9.4 7.8 -1.0 - - - 92 1.6 0.0 7.6 1.5 98 36 2.84 0.00 40 11.1 12.6
4/12/21 80.6 1454 34.4 0651 0.00 0.00 11.64 17.9 1627 WSW | 245 2.0 35.9 99 17 5.3 90.3 9.5 9.5 -0.5 - - - 92 0.0 0.0 11.0 7.5 91 34 7.84 0.00 20 10.6 12.5
4/11/21 80.1 1618 30.3 0700 0.00 0.00 11.64 10.7 1658 WSW | 244 1.3 38.4 99 20 6.8 82.3 8.4 6.3 -4.0 - - - 92 2.1 0.0 10.3 5.2 80 26 6.91 0.00 0 9.9 12.6
4/10/21 75.8 1704 29.1 0612 0.00 0.00 11.64 17.2 1444 NNW | 337 2.1 36.4 99 19 4.9 49.3 10.4 6.0 -2.5 - - - 92 4.3 0.0 8.2 2.4 70 21 5.38 0.00 10 9.4 12.6
4/9/21 73.1 1516 30.4 0615 0.00 0.00 11.64 16.0 1732 W | 279 2.0 37.4 99 31 6.9 24.1 11.1 7.9 0.0 - - - 92 3.2 0.0 6.4 1.8 61 19 2.54 0.00 20 9.6 12.6
4/8/21 72.2 1509 26.6 0658 0.00 0.00 11.64 16.9 1527 SW | 217 2.0 33.3 99 16 2.8 27.7 10.7 4.8 -2.0 - - - 92 5.9 2.1 7.0 0.0 55 17 3.10 0.00 30 9.2 12.6
4/7/21 68.4 1316 28.7 0614 0.00 0.00 11.64 16.6 1416 W | 264 2.4 33.9 99 12 6.3 8.5 11.4 7.6 2.5 - - - 91 3.8 0.0 5.2 0.0 48 17 0.00 0.00 40 8.7 12.6
4/6/21 74.0 1620 32.6 0644 0.00 0.00 11.64 14.6 1537 W | 260 2.0 39.8 99 18 7.4 38.7 9.0 9.0 -1.0 - - - 91 0.0 0.0 8.1 3.3 43 17 3.96 0.00 50 10.0 12.6
4/5/21 70.3 1649 35.5 0259 0.00 0.00 11.64 13.0 1824 W | 264 1.9 41.1 98 35 8.0 14.8 9.8 9.8 6.0 - - - 90 0.0 0.0 6.0 2.9 35 14 0.09 0.00 60 8.4 12.6
4/4/21 69.2 1549 37.9 0057 0.00 0.00 11.64 13.0 1740 SW | 235 2.3 40.8 96 35 0.5 6.1 9.2 9.2 9.0 - - - 90 0.0 0.0 4.7 3.6 29 11 0.00 0.00 70 7.5 12.6
4/3/21 67.1 1433 28.0 0658 0.00 0.00 11.64 11.8 1613 SW | 222 2.0 36.2 98 29 5.5 2.6 9.7 5.1 1.5 - - - 89 4.6 0.0 4.8 0.0 24 7 0.00 0.00 80 8.4 12.6
4/2/21 76.2 1519 27.9 0719 0.00 0.00 11.64 12.8 1525 SW | 221 1.9 30.9 98 13 3.5 58.7 10.3 5.3 -3.5 - - - 89 5.0 0.1 9.1 2.0 19 7 6.69 0.00 60 9.8 12.6
4/1/21 79.5 1542 30.9 0711 0.00 0.00 11.64 13.6 1757 SW | 223 1.7 32.4 99 13 4.7 82.0 10.4 8.6 -2.5 - - - 89 1.8 0.0 10.1 5.2 10 5 7.10 0.00 0 9.9 12.6
3/31/21 78.1 1642 28.8 0711 0.00 2.20 11.64 16.2 1244 SSE | 151 2.2 29.5 92 13 0.0 82.0 10.3 7.4 -4.0 2,085 1,269 1,327 89 2.8 0.0 10.3 3.5 - - 7.92 0.00 0 10.0 12.5
3/30/21 77.1 1609 27.4 0659 0.00 2.20 11.64 10.1 1239 E | 90 1.6 27.1 99 9 4.4 60.7 11.5 6.9 -1.5 2,075 1,262 1,332 89 4.7 0.5 8.6 2.2 - - 6.47 0.00 0 9.4 12.6
3/29/21 69.5 1611 31.9 0726 0.00 2.20 11.64 12.5 1225 SE | 132 1.9 32.9 96 19 0.1 15.9 10.7 10.6 3.5 2,063 1,255 1,335 88 0.2 0.0 6.3 0.7 - - 0.00 0.00 0 9.4 12.5
3/28/21 77.4 1436 29.7 0711 0.00 2.20 11.64 14.0 1640 WNW | 285 1.6 33.4 98 11 3.5 62.4 10.2 7.7 -1.5 2,053 1,244 1,332 88 2.5 0.0 8.7 3.5 - - 5.80 0.00 0 9.7 12.5
3/27/21 78.9 1622 29.4 0708 0.00 2.20 11.64 13.4 1758 W | 271 1.6 33.4 99 18 5.5 69.1 10.5 6.8 -3.5 2,042 1,237 1,335 88 3.8 0.0 9.4 4.2 - - 6.33 0.00 0 9.4 12.5
3/26/21 70.2 1704 26.0 0719 0.00 2.20 11.64 10.5 1326 ESE | 114 1.7 28.9 99 15 4.2 17.8 12.0 5.2 -0.5 2,032 1,230 1,339 88 6.8 1.8 6.1 0.0 - - 0.22 0.00 0 8.9 12.6
3/25/21 61.6 1439 32.7 0046 0.00 2.20 11.64 16.1 1511 W | 270 2.9 35.8 96 34 1.3 0.0 10.8 10.8 12.0 2,020 1,225 1,341 87 0.0 0.0 2.9 0.0 - - 0.00 0.00 0 6.9 12.6
3/24/21 68.8 1444 27.4 0708 0.00 2.20 11.64 19.5 1718 W | 263 2.6 30.3 91 18 0.0 4.7 9.5 4.8 1.5 2,009 1,214 1,329 87 4.6 0.4 5.0 0.0 - - 0.00 0.00 0 8.7 12.6
3/23/21 64.2 1617 28.1 0722 0.00 2.20 11.64 14.9 1403 SE | 137 3.0 26.1 96 17 1.0 0.0 12.1 10.3 9.5 2,000 1,209 1,328 87 1.8 0.0 4.0 0.0 - - 0.00 0.00 0 8.3 12.6
3/22/21 61.4 1546 35.6 0101 0.00 2.20 11.64 22.0 1321 N | 2 3.1 37.0 96 44 4.2 0.0 10.5 10.5 14.5 1,987 1,199 1,320 87 0.0 0.0 2.5 0.0 - - 0.00 0.00 0 6.4 12.6
3/21/21 63.4 1435 24.5 0716 0.00 2.20 11.64 16.2 1625 WSW | 253 1.9 33.8 99 25 4.7 0.0 12.1 4.7 4.5 1,977 1,188 1,306 86 7.4 4.3 3.2 0.0 - - 0.00 0.00 0 7.1 12.6
3/20/21 58.0 1613 29.8 0711 0.00 2.20 11.64 17.5 1750 W | 280 2.7 33.7 99 36 9.0 0.0 12.8 10.8 11.5 1,965 1,183 1,302 85 2.0 0.0 1.3 0.0 - - 0.00 0.00 0 2.9 12.6
Max 84.6 - 37.9 - 0.00 2.20 - 22.0 - - 3.1 41.1 99 44 9.0 137.4 12.8 10.8 14.5 - - - 93 7.4 4.3 13.3 7.5 - - 9.40 0.00 - 11.1 12.6
Avg - - - - - 0.88 - - - - 2.0 33.8 - - - - 10.4 7.6 1.1 - - - 90 2.8 0.3 7.2 2.3 - - 3.34 0.00 - 9.1 -
Min 58.0 - 24.5 - 0.00 0.00 - 10.1 - - 1.3 26.1 91 9 0.0 0.0 8.4 4.7 -4.5 - - - 85 0.0 0.0 1.3 0.0 - - 0.00 0.00 - 2.9 12.5
Total - - - - - - - - - - - - - - - - 311.0 227.9 34.0 - - - - 83.1 9.3 216.1 68.5 - - 100.25 0.00 - 271.8 -

Climate Summary

Scotts Valley

Current Year | Showing 1/1/21 - 4/18/21
as of 4/19/21 6:45 PM PDT
Temperature (°F) Precip (in) Days
Month Days Avg Max Avg Min Max Max Min Min Total Daily Min Temp < 28 Daily Min Temp < 32 Daily Max Temp > 90 Daily Max Temp > 100 Daily Rain > 0.01 Daily Rain > 0.1
Jan 2021 31 56.4 31 78.2 16.7 3.73 8 20 0 0 16 5
Feb 2021 28 61.3 29.2 73.9 22.3 1.92 14 21 0 0 10 5
Mar 2021 31 62 28.2 78.9 22.3 2.2 14 26 0 0 6 5
Apr 2021 18 74.8 30.7 84.6 26.6 0 2 14 0 0 0 0
Total 108 - - - - 7.85 38 81 0 0 32 15
Average 27 63.6 29.8 - - 1.96 9.5 20.2 0 0 8 3.8
Maximum 31 74.8 31 84.6 - 3.73 14 26 0 0 16 5
Minimum 18 56.4 28.2 - 16.7 0 2 14 0 0 0 0

Climate Summary

Scotts Valley

Last Year | Showing 1/1/20 - 12/31/20
as of 4/19/21 6:45 PM PDT
Temperature (°F) Precip (in) Days
Month Days Avg Max Avg Min Max Max Min Min Total Daily Min Temp < 28 Daily Min Temp < 32 Daily Max Temp > 90 Daily Max Temp > 100 Daily Rain > 0.01 Daily Rain > 0.1
Jan 2020 31 56.1 31.6 72.9 21.2 2.5 10 20 0 0 13 5
Feb 2020 29 67.8 27.1 77.4 19.7 0 19 26 0 0 0 0
Mar 2020 31 61.3 31.2 80.9 23 1.02 6 21 0 0 8 5
Apr 2020 30 71.3 37.4 87.3 23.8 0.71 2 7 0 0 4 3
May 2020 31 77.8 40.1 96.3 28.4 1.08 0 4 8 0 5 4
Jun 2020 30 86.7 46.2 105.4 31.1 0 0 1 15 3 0 0
Jul 2020 31 94.5 47.6 99.7 39.7 0 0 0 26 0 0 0
Aug 2020 31 95.9 50.9 104.1 40.7 0.09 0 0 28 4 2 0
Sep 2020 30 91.1 44 109.7 35.1 0 0 0 16 4 0 0
Oct 2020 31 87.1 35.9 97.1 26.8 0 3 9 14 0 0 0
Nov 2020 30 65.6 26.5 87.7 15.5 0.84 18 23 0 0 4 2
Dec 2020 31 59.9 26.3 73.5 18.6 2.87 24 27 0 0 8 5
Total 366 - - - - 9.11 82 138 107 11 44 24
Average 30.5 76.2 37.1 - - 0.76 6.8 11.5 8.9 0.9 3.7 2
Maximum 31 95.9 50.9 109.7 - 2.87 24 27 28 4 13 5
Minimum 29 56.1 26.3 - 15.5 0 0 0 0 0 0 0
Calm: 1.0%
Calm: 0.1%